sensor_id;sensor_type;location;lat;lon;timestamp;pressure;altitude;pressure_sealevel;temperature;humidity
78932;BME280;68331;53.362;55.932;2023-09-12T00:00:26;99652.72;;;11.36;83.60
78932;BME280;68331;53.362;55.932;2023-09-12T00:02:51;99650.94;;;11.36;83.56
78932;BME280;68331;53.362;55.932;2023-09-12T00:05:17;99665.84;;;11.37;83.54
78932;BME280;68331;53.362;55.932;2023-09-12T00:07:43;99661.63;;;11.33;83.61
78932;BME280;68331;53.362;55.932;2023-09-12T00:10:10;99663.50;;;11.30;83.46
78932;BME280;68331;53.362;55.932;2023-09-12T00:12:36;99661.03;;;11.25;83.61
78932;BME280;68331;53.362;55.932;2023-09-12T00:15:02;99658.47;;;11.24;83.58
78932;BME280;68331;53.362;55.932;2023-09-12T00:17:30;99655.81;;;11.24;83.78
78932;BME280;68331;53.362;55.932;2023-09-12T00:19:56;99661.22;;;11.21;83.92
78932;BME280;68331;53.362;55.932;2023-09-12T00:22:22;99657.84;;;11.17;83.89
78932;BME280;68331;53.362;55.932;2023-09-12T00:24:48;99654.38;;;11.15;84.25
78932;BME280;68331;53.362;55.932;2023-09-12T00:27:14;99658.69;;;11.17;84.14
78932;BME280;68331;53.362;55.932;2023-09-12T00:29:40;99655.19;;;11.17;84.49
78932;BME280;68331;53.362;55.932;2023-09-12T00:32:06;99654.25;;;11.18;84.50
78932;BME280;68331;53.362;55.932;2023-09-12T00:34:32;99655.13;;;11.18;84.22
78932;BME280;68331;53.362;55.932;2023-09-12T00:36:58;99653.34;;;11.19;84.29
78932;BME280;68331;53.362;55.932;2023-09-12T00:39:24;99666.50;;;11.21;84.05
78932;BME280;68331;53.362;55.932;2023-09-12T00:41:50;99665.63;;;11.20;84.29
78932;BME280;68331;53.362;55.932;2023-09-12T00:44:16;99662.94;;;11.22;84.48
78932;BME280;68331;53.362;55.932;2023-09-12T00:46:44;99670.00;;;11.21;84.29
78932;BME280;68331;53.362;55.932;2023-09-12T00:49:10;99671.81;;;11.19;84.38
78932;BME280;68331;53.362;55.932;2023-09-12T00:51:37;99663.91;;;11.19;84.33
78932;BME280;68331;53.362;55.932;2023-09-12T00:54:03;99669.19;;;11.19;84.56
78932;BME280;68331;53.362;55.932;2023-09-12T00:56:29;99664.75;;;11.20;84.62
78932;BME280;68331;53.362;55.932;2023-09-12T00:58:56;99663.09;;;11.17;84.63
78932;BME280;68331;53.362;55.932;2023-09-12T01:01:23;99668.44;;;11.15;84.66
78932;BME280;68331;53.362;55.932;2023-09-12T01:03:49;99665.97;;;11.11;84.86
78932;BME280;68331;53.362;55.932;2023-09-12T01:06:19;99675.50;;;11.15;84.96
78932;BME280;68331;53.362;55.932;2023-09-12T01:08:46;99673.03;;;11.10;85.14
78932;BME280;68331;53.362;55.932;2023-09-12T01:11:13;99683.63;;;11.09;85.18
78932;BME280;68331;53.362;55.932;2023-09-12T01:13:39;99679.53;;;11.00;85.28
78932;BME280;68331;53.362;55.932;2023-09-12T01:16:06;99686.41;;;11.06;85.48
78932;BME280;68331;53.362;55.932;2023-09-12T01:18:32;99683.72;;;11.07;85.51
78932;BME280;68331;53.362;55.932;2023-09-12T01:24:06;99693.16;;;11.13;85.69
78932;BME280;68331;53.362;55.932;2023-09-12T01:29:12;99690.59;;;11.11;85.71
78932;BME280;68331;53.362;55.932;2023-09-12T01:31:39;99694.91;;;11.14;85.93
78932;BME280;68331;53.362;55.932;2023-09-12T01:34:10;99701.03;;;11.14;86.11
78932;BME280;68331;53.362;55.932;2023-09-12T01:36:37;99698.41;;;11.14;85.90
78932;BME280;68331;53.362;55.932;2023-09-12T01:39:03;99697.59;;;11.12;86.12
78932;BME280;68331;53.362;55.932;2023-09-12T01:41:32;99700.88;;;11.19;86.00
78932;BME280;68331;53.362;55.932;2023-09-12T01:44:02;99700.00;;;11.18;86.09
78932;BME280;68331;53.362;55.932;2023-09-12T01:46:29;99700.00;;;11.18;85.84
78932;BME280;68331;53.362;55.932;2023-09-12T01:48:57;99696.53;;;11.16;85.92
78932;BME280;68331;53.362;55.932;2023-09-12T01:51:25;99708.84;;;11.17;85.85
78932;BME280;68331;53.362;55.932;2023-09-12T01:53:52;99706.25;;;11.16;86.21
78932;BME280;68331;53.362;55.932;2023-09-12T01:56:19;99701.94;;;11.13;86.24
78932;BME280;68331;53.362;55.932;2023-09-12T01:58:46;99701.09;;;11.13;86.10
78932;BME280;68331;53.362;55.932;2023-09-12T02:01:12;99716.88;;;11.14;86.49
78932;BME280;68331;53.362;55.932;2023-09-12T02:03:38;99704.59;;;11.13;86.36
78932;BME280;68331;53.362;55.932;2023-09-12T02:06:04;99715.09;;;11.15;86.23
78932;BME280;68331;53.362;55.932;2023-09-12T02:08:30;99684.69;;;11.05;86.35
78932;BME280;68331;53.362;55.932;2023-09-12T02:10:56;99704.47;;;11.16;86.52
78932;BME280;68331;53.362;55.932;2023-09-12T02:13:22;99709.81;;;11.15;86.61
78932;BME280;68331;53.362;55.932;2023-09-12T02:15:48;99713.38;;;11.14;86.71
78932;BME280;68331;53.362;55.932;2023-09-12T02:18:14;99711.53;;;11.16;86.65
78932;BME280;68331;53.362;55.932;2023-09-12T02:20:41;99709.75;;;11.16;86.63
78932;BME280;68331;53.362;55.932;2023-09-12T02:23:11;99704.31;;;11.21;86.51
78932;BME280;68331;53.362;55.932;2023-09-12T02:25:37;99713.06;;;11.23;86.69
78932;BME280;68331;53.362;55.932;2023-09-12T02:28:03;99714.81;;;11.23;86.75
78932;BME280;68331;53.362;55.932;2023-09-12T02:30:30;99712.13;;;11.24;86.71
78932;BME280;68331;53.362;55.932;2023-09-12T02:32:55;99716.47;;;11.25;86.83
78932;BME280;68331;53.362;55.932;2023-09-12T02:35:22;99712.88;;;11.28;86.85
78932;BME280;68331;53.362;55.932;2023-09-12T02:37:48;99725.16;;;11.29;86.89
78932;BME280;68331;53.362;55.932;2023-09-12T02:40:15;99725.22;;;11.27;86.61
78932;BME280;68331;53.362;55.932;2023-09-12T02:42:40;99730.53;;;11.26;86.66
78932;BME280;68331;53.362;55.932;2023-09-12T02:45:07;99733.06;;;11.29;86.72
78932;BME280;68331;53.362;55.932;2023-09-12T02:47:33;99732.22;;;11.28;86.92
78932;BME280;68331;53.362;55.932;2023-09-12T02:49:59;99728.66;;;11.29;87.12
78932;BME280;68331;53.362;55.932;2023-09-12T02:52:25;99743.63;;;11.29;87.30
78932;BME280;68331;53.362;55.932;2023-09-12T02:54:51;99739.31;;;11.26;87.31
78932;BME280;68331;53.362;55.932;2023-09-12T02:57:17;99725.16;;;11.29;87.30
78932;BME280;68331;53.362;55.932;2023-09-12T02:59:43;99724.03;;;11.36;87.11
78932;BME280;68331;53.362;55.932;2023-09-12T03:02:09;99724.78;;;11.39;87.01
78932;BME280;68331;53.362;55.932;2023-09-12T03:04:35;99733.38;;;11.45;86.77
78932;BME280;68331;53.362;55.932;2023-09-12T03:07:01;99754.41;;;11.48;87.11
78932;BME280;68331;53.362;55.932;2023-09-12T03:09:27;99756.06;;;11.50;87.08
78932;BME280;68331;53.362;55.932;2023-09-12T03:11:53;99761.25;;;11.53;87.03
78932;BME280;68331;53.362;55.932;2023-09-12T03:14:19;99762.22;;;11.51;87.12
78932;BME280;68331;53.362;55.932;2023-09-12T03:16:45;99760.41;;;11.51;87.05
78932;BME280;68331;53.362;55.932;2023-09-12T03:19:12;99763.03;;;11.53;87.39
78932;BME280;68331;53.362;55.932;2023-09-12T03:21:38;99743.72;;;11.51;87.26
78932;BME280;68331;53.362;55.932;2023-09-12T03:24:05;99756.41;;;11.64;87.20
78932;BME280;68331;53.362;55.932;2023-09-12T03:26:33;99761.41;;;11.72;86.98
78932;BME280;68331;53.362;55.932;2023-09-12T03:28:59;99753.28;;;11.77;86.99
78932;BME280;68331;53.362;55.932;2023-09-12T03:31:35;99754.03;;;11.80;86.62
78932;BME280;68331;53.362;55.932;2023-09-12T03:34:01;99745.31;;;11.78;86.64
78932;BME280;68331;53.362;55.932;2023-09-12T03:36:28;99745.31;;;11.78;86.65
78932;BME280;68331;53.362;55.932;2023-09-12T03:38:53;99757.28;;;11.89;86.62
78932;BME280;68331;53.362;55.932;2023-09-12T03:41:19;99742.28;;;11.89;86.16
78932;BME280;68331;53.362;55.932;2023-09-12T03:43:54;99757.56;;;12.04;86.32
78932;BME280;68331;53.362;55.932;2023-09-12T03:46:21;99767.16;;;12.07;85.98
78932;BME280;68331;53.362;55.932;2023-09-12T03:48:47;99768.13;;;12.04;85.90
78932;BME280;68331;53.362;55.932;2023-09-12T03:51:14;99779.44;;;12.08;85.80
78932;BME280;68331;53.362;55.932;2023-09-12T03:53:40;99773.41;;;12.04;85.80
78932;BME280;68331;53.362;55.932;2023-09-12T03:56:07;99773.53;;;12.01;86.07
78932;BME280;68331;53.362;55.932;2023-09-12T03:58:34;99774.34;;;12.03;86.29
78932;BME280;68331;53.362;55.932;2023-09-12T04:01:00;99778.78;;;12.03;86.03
78932;BME280;68331;53.362;55.932;2023-09-12T04:03:26;99776.94;;;12.05;86.11
78932;BME280;68331;53.362;55.932;2023-09-12T04:05:52;99779.41;;;12.09;86.31
78932;BME280;68331;53.362;55.932;2023-09-12T04:08:18;99788.00;;;12.15;86.40
78932;BME280;68331;53.362;55.932;2023-09-12T04:10:44;99780.88;;;12.17;86.31
78932;BME280;68331;53.362;55.932;2023-09-12T04:13:10;99778.28;;;12.15;85.99
78932;BME280;68331;53.362;55.932;2023-09-12T04:15:36;99784.31;;;12.19;85.98
78932;BME280;68331;53.362;55.932;2023-09-12T04:18:02;99779.91;;;12.19;86.13
78932;BME280;68331;53.362;55.932;2023-09-12T04:20:29;99787.75;;;12.21;85.84
78932;BME280;68331;53.362;55.932;2023-09-12T04:22:55;99791.16;;;12.24;86.06
78932;BME280;68331;53.362;55.932;2023-09-12T04:25:21;99797.25;;;12.26;85.94
78932;BME280;68331;53.362;55.932;2023-09-12T04:27:46;99796.66;;;12.18;85.94
78932;BME280;68331;53.362;55.932;2023-09-12T04:30:13;99807.00;;;12.24;86.19
78932;BME280;68331;53.362;55.932;2023-09-12T04:32:39;99791.59;;;12.14;86.05
78932;BME280;68331;53.362;55.932;2023-09-12T04:35:05;99822.09;;;12.22;86.30
78932;BME280;68331;53.362;55.932;2023-09-12T04:37:31;99817.84;;;12.18;86.29
78932;BME280;68331;53.362;55.932;2023-09-12T04:39:57;99824.13;;;12.16;86.39
78932;BME280;68331;53.362;55.932;2023-09-12T04:42:23;99829.22;;;12.20;86.28
78932;BME280;68331;53.362;55.932;2023-09-12T04:44:49;99823.75;;;12.25;86.50
78932;BME280;68331;53.362;55.932;2023-09-12T04:47:15;99820.13;;;12.27;86.10
78932;BME280;68331;53.362;55.932;2023-09-12T04:49:44;99809.53;;;12.27;86.03
78932;BME280;68331;53.362;55.932;2023-09-12T04:52:10;99830.97;;;12.43;86.04
78932;BME280;68331;53.362;55.932;2023-09-12T04:54:36;99829.06;;;12.47;85.78
78932;BME280;68331;53.362;55.932;2023-09-12T04:57:02;99831.66;;;12.48;86.02
78932;BME280;68331;53.362;55.932;2023-09-12T04:59:29;99832.50;;;12.49;85.81
78932;BME280;68331;53.362;55.932;2023-09-12T05:01:55;99833.25;;;12.52;85.74
78932;BME280;68331;53.362;55.932;2023-09-12T05:04:21;99838.91;;;12.65;85.54
78932;BME280;68331;53.362;55.932;2023-09-12T05:06:49;99836.81;;;12.73;85.00
78932;BME280;68331;53.362;55.932;2023-09-12T05:09:15;99839.06;;;12.83;84.89
78932;BME280;68331;53.362;55.932;2023-09-12T05:11:41;99835.19;;;12.91;84.61
78932;BME280;68331;53.362;55.932;2023-09-12T05:14:07;99844.06;;;13.11;84.17
78932;BME280;68331;53.362;55.932;2023-09-12T05:16:33;99844.13;;;13.31;83.72
78932;BME280;68331;53.362;55.932;2023-09-12T05:18:59;99838.94;;;13.48;83.30
78932;BME280;68331;53.362;55.932;2023-09-12T05:21:26;99834.41;;;13.71;82.27
78932;BME280;68331;53.362;55.932;2023-09-12T05:23:52;99847.00;;;13.86;81.96
78932;BME280;68331;53.362;55.932;2023-09-12T05:26:18;99839.69;;;13.91;81.23
78932;BME280;68331;53.362;55.932;2023-09-12T05:28:44;99843.84;;;14.16;81.07
78932;BME280;68331;53.362;55.932;2023-09-12T05:31:10;99854.84;;;14.27;80.34
78932;BME280;68331;53.362;55.932;2023-09-12T05:33:36;99857.69;;;14.23;80.47
78932;BME280;68331;53.362;55.932;2023-09-12T05:36:03;99865.50;;;14.26;80.65
78932;BME280;68331;53.362;55.932;2023-09-12T05:38:29;99859.06;;;14.31;80.48
78932;BME280;68331;53.362;55.932;2023-09-12T05:40:56;99859.34;;;14.44;79.99
78932;BME280;68331;53.362;55.932;2023-09-12T05:43:23;99865.59;;;14.43;79.58
78932;BME280;68331;53.362;55.932;2023-09-12T05:45:49;99872.63;;;14.25;79.48
78932;BME280;68331;53.362;55.932;2023-09-12T05:48:15;99862.56;;;14.13;79.88
78932;BME280;68331;53.362;55.932;2023-09-12T05:50:41;99863.28;;;14.35;79.81
78932;BME280;68331;53.362;55.932;2023-09-12T05:53:08;99864.50;;;14.47;79.48
78932;BME280;68331;53.362;55.932;2023-09-12T05:55:34;99860.47;;;14.76;78.98
78932;BME280;68331;53.362;55.932;2023-09-12T05:58:00;99860.91;;;15.21;77.94
78932;BME280;68331;53.362;55.932;2023-09-12T06:00:26;99857.69;;;15.66;76.59
78932;BME280;68331;53.362;55.932;2023-09-12T06:02:52;99860.63;;;15.95;75.17
78932;BME280;68331;53.362;55.932;2023-09-12T06:05:21;99863.97;;;15.98;74.73
78932;BME280;68331;53.362;55.932;2023-09-12T06:07:47;99854.97;;;16.01;73.91
78932;BME280;68331;53.362;55.932;2023-09-12T06:10:13;99864.06;;;15.97;74.25
78932;BME280;68331;53.362;55.932;2023-09-12T06:12:39;99878.41;;;15.94;73.92
78932;BME280;68331;53.362;55.932;2023-09-12T06:15:08;99877.47;;;15.95;73.64
78932;BME280;68331;53.362;55.932;2023-09-12T06:17:34;99872.88;;;16.15;72.68
78932;BME280;68331;53.362;55.932;2023-09-12T06:20:01;99874.91;;;16.10;72.56
78932;BME280;68331;53.362;55.932;2023-09-12T06:22:30;99888.19;;;15.94;72.82
78932;BME280;68331;53.362;55.932;2023-09-12T06:24:58;99882.88;;;15.94;73.10
78932;BME280;68331;53.362;55.932;2023-09-12T06:27:24;99885.19;;;16.00;73.01
78932;BME280;68331;53.362;55.932;2023-09-12T06:29:50;99876.47;;;16.14;72.70
78932;BME280;68331;53.362;55.932;2023-09-12T06:32:17;99885.44;;;16.28;72.00
78932;BME280;68331;53.362;55.932;2023-09-12T06:34:43;99890.47;;;16.17;71.56
78932;BME280;68331;53.362;55.932;2023-09-12T06:37:11;99874.47;;;16.01;71.55
78932;BME280;68331;53.362;55.932;2023-09-12T06:39:37;99887.75;;;16.01;71.62
78932;BME280;68331;53.362;55.932;2023-09-12T06:42:03;99884.34;;;15.99;71.79
78932;BME280;68331;53.362;55.932;2023-09-12T06:44:29;99888.69;;;16.18;71.89
78932;BME280;68331;53.362;55.932;2023-09-12T06:46:55;99896.06;;;16.28;71.66
78932;BME280;68331;53.362;55.932;2023-09-12T06:49:21;99892.75;;;16.08;71.69
78932;BME280;68331;53.362;55.932;2023-09-12T06:51:47;99899.34;;;16.00;72.08
78932;BME280;68331;53.362;55.932;2023-09-12T06:54:13;99908.28;;;15.99;72.07
78932;BME280;68331;53.362;55.932;2023-09-12T06:56:41;99902.66;;;16.06;72.32
78932;BME280;68331;53.362;55.932;2023-09-12T06:59:09;99890.78;;;16.11;72.07
78932;BME280;68331;53.362;55.932;2023-09-12T07:01:35;99904.22;;;16.25;71.55
78932;BME280;68331;53.362;55.932;2023-09-12T07:04:03;99908.69;;;16.25;71.90
78932;BME280;68331;53.362;55.932;2023-09-12T07:06:29;99907.25;;;16.35;72.41
78932;BME280;68331;53.362;55.932;2023-09-12T07:08:56;99905.03;;;16.43;71.67
78932;BME280;68331;53.362;55.932;2023-09-12T07:11:21;99913.44;;;16.51;71.04
78932;BME280;68331;53.362;55.932;2023-09-12T07:13:50;99920.66;;;16.49;71.25
78932;BME280;68331;53.362;55.932;2023-09-12T07:16:16;99913.38;;;16.53;71.40
78932;BME280;68331;53.362;55.932;2023-09-12T07:18:42;99917.41;;;16.60;71.14
78932;BME280;68331;53.362;55.932;2023-09-12T07:21:09;99912.97;;;16.77;70.51
78932;BME280;68331;53.362;55.932;2023-09-12T07:23:36;99921.03;;;16.91;70.38
78932;BME280;68331;53.362;55.932;2023-09-12T07:26:03;99925.44;;;16.92;70.37
78932;BME280;68331;53.362;55.932;2023-09-12T07:28:30;99928.50;;;16.84;70.35
78932;BME280;68331;53.362;55.932;2023-09-12T07:30:56;99921.31;;;16.86;70.04
78932;BME280;68331;53.362;55.932;2023-09-12T07:33:23;99919.50;;;16.87;69.90
78932;BME280;68331;53.362;55.932;2023-09-12T07:35:52;99921.81;;;16.93;69.31
78932;BME280;68331;53.362;55.932;2023-09-12T07:38:19;99918.47;;;16.89;69.50
78932;BME280;68331;53.362;55.932;2023-09-12T07:40:46;99928.84;;;16.94;69.79
78932;BME280;68331;53.362;55.932;2023-09-12T07:43:11;99937.19;;;16.88;69.66
78932;BME280;68331;53.362;55.932;2023-09-12T07:45:37;99932.81;;;16.87;69.79
78932;BME280;68331;53.362;55.932;2023-09-12T07:48:08;99921.03;;;16.75;69.41
78932;BME280;68331;53.362;55.932;2023-09-12T07:50:35;99928.13;;;16.74;70.04
78932;BME280;68331;53.362;55.932;2023-09-12T07:53:05;99940.94;;;16.68;70.05
78932;BME280;68331;53.362;55.932;2023-09-12T07:55:31;99936.47;;;16.68;70.12
78932;BME280;68331;53.362;55.932;2023-09-12T07:58:02;99935.78;;;16.65;70.72
78932;BME280;68331;53.362;55.932;2023-09-12T08:00:28;99938.44;;;16.65;70.42
78932;BME280;68331;53.362;55.932;2023-09-12T08:02:54;99937.53;;;16.66;70.31
78932;BME280;68331;53.362;55.932;2023-09-12T08:05:20;99942.69;;;16.69;70.41
78932;BME280;68331;53.362;55.932;2023-09-12T08:07:46;99946.75;;;16.76;70.75
78932;BME280;68331;53.362;55.932;2023-09-12T08:10:12;99949.09;;;16.82;69.70
78932;BME280;68331;53.362;55.932;2023-09-12T08:12:38;99952.78;;;16.95;69.31
78932;BME280;68331;53.362;55.932;2023-09-12T08:15:05;99953.19;;;17.04;69.48
78932;BME280;68331;53.362;55.932;2023-09-12T08:17:31;99955.31;;;17.13;69.67
78932;BME280;68331;53.362;55.932;2023-09-12T08:19:57;99955.94;;;17.18;69.45
78932;BME280;68331;53.362;55.932;2023-09-12T08:22:23;99964.22;;;17.13;69.73
78932;BME280;68331;53.362;55.932;2023-09-12T08:24:49;99960.81;;;17.10;69.79
78932;BME280;68331;53.362;55.932;2023-09-12T08:27:15;99966.09;;;17.11;69.60
78932;BME280;68331;53.362;55.932;2023-09-12T08:29:41;99969.88;;;17.07;69.39
78932;BME280;68331;53.362;55.932;2023-09-12T08:32:09;99972.63;;;17.06;69.29
78932;BME280;68331;53.362;55.932;2023-09-12T08:34:35;99972.09;;;17.15;68.80
78932;BME280;68331;53.362;55.932;2023-09-12T08:37:03;99974.91;;;17.28;68.92
78932;BME280;68331;53.362;55.932;2023-09-12T08:39:43;99980.22;;;17.43;67.82
78932;BME280;68331;53.362;55.932;2023-09-12T08:42:16;99984.50;;;17.62;67.64
78932;BME280;68331;53.362;55.932;2023-09-12T08:44:43;99983.63;;;17.77;67.38
78932;BME280;68331;53.362;55.932;2023-09-12T08:47:11;99988.50;;;17.85;67.33
78932;BME280;68331;53.362;55.932;2023-09-12T08:49:37;99971.81;;;17.81;66.45
78932;BME280;68331;53.362;55.932;2023-09-12T08:52:07;99986.78;;;17.84;66.16
78932;BME280;68331;53.362;55.932;2023-09-12T08:54:33;99985.34;;;17.78;66.30
78932;BME280;68331;53.362;55.932;2023-09-12T08:57:03;99970.38;;;17.60;66.25
78932;BME280;68331;53.362;55.932;2023-09-12T08:59:33;99991.25;;;17.67;66.83
78932;BME280;68331;53.362;55.932;2023-09-12T09:02:00;99990.59;;;17.64;66.65
78932;BME280;68331;53.362;55.932;2023-09-12T09:04:30;99993.44;;;17.61;66.53
78932;BME280;68331;53.362;55.932;2023-09-12T09:06:59;99996.53;;;17.69;66.37
78932;BME280;68331;53.362;55.932;2023-09-12T09:09:26;99990.06;;;17.73;65.94
78932;BME280;68331;53.362;55.932;2023-09-12T09:11:56;100005.88;;;17.76;65.99
78932;BME280;68331;53.362;55.932;2023-09-12T09:14:22;99991.25;;;17.67;65.52
78932;BME280;68331;53.362;55.932;2023-09-12T09:16:49;99997.13;;;17.74;65.25
78932;BME280;68331;53.362;55.932;2023-09-12T09:19:15;100005.03;;;17.76;64.82
78932;BME280;68331;53.362;55.932;2023-09-12T09:21:42;99997.19;;;17.73;65.25
78932;BME280;68331;53.362;55.932;2023-09-12T09:24:10;100006.34;;;17.84;65.08
78932;BME280;68331;53.362;55.932;2023-09-12T09:29:13;99998.59;;;17.80;65.49
78932;BME280;68331;53.362;55.932;2023-09-12T09:31:44;100007.66;;;17.77;65.54
78932;BME280;68331;53.362;55.932;2023-09-12T09:34:22;100008.56;;;17.76;65.51
78932;BME280;68331;53.362;55.932;2023-09-12T09:36:51;100014.25;;;17.70;65.71
78932;BME280;68331;53.362;55.932;2023-09-12T09:39:18;100014.34;;;17.69;65.86
78932;BME280;68331;53.362;55.932;2023-09-12T09:41:49;100015.88;;;17.73;66.27
78932;BME280;68331;53.362;55.932;2023-09-12T09:44:15;100014.06;;;17.73;66.10
78932;BME280;68331;53.362;55.932;2023-09-12T09:46:46;100014.53;;;17.81;66.08
78932;BME280;68331;53.362;55.932;2023-09-12T09:49:16;100023.09;;;17.86;65.92
78932;BME280;68331;53.362;55.932;2023-09-12T09:51:44;100020.06;;;17.93;65.29
78932;BME280;68331;53.362;55.932;2023-09-12T09:54:12;100020.38;;;18.02;64.25
78932;BME280;68331;53.362;55.932;2023-09-12T09:56:48;100018.50;;;18.19;63.24
78932;BME280;68331;53.362;55.932;2023-09-12T09:59:20;100022.66;;;18.39;62.40
78932;BME280;68331;53.362;55.932;2023-09-12T10:01:48;100027.59;;;18.59;61.75
78932;BME280;68331;53.362;55.932;2023-09-12T10:04:15;100000.97;;;18.72;61.27
78932;BME280;68331;53.362;55.932;2023-09-12T10:06:45;100020.00;;;18.96;60.80
78932;BME280;68331;53.362;55.932;2023-09-12T10:09:13;100021.09;;;19.06;60.38
78932;BME280;68331;53.362;55.932;2023-09-12T10:11:41;100012.03;;;19.09;59.92
78932;BME280;68331;53.362;55.932;2023-09-12T10:14:08;100023.53;;;19.23;59.27
78932;BME280;68331;53.362;55.932;2023-09-12T10:16:38;100018.16;;;19.65;58.48
78932;BME280;68331;53.362;55.932;2023-09-12T10:22:20;100018.72;;;20.23;56.57
78932;BME280;68331;53.362;55.932;2023-09-12T10:24:49;100017.66;;;20.25;56.84
78932;BME280;68331;53.362;55.932;2023-09-12T10:27:18;100019.81;;;20.33;56.94
78932;BME280;68331;53.362;55.932;2023-09-12T10:29:45;100020.97;;;20.41;56.30
78932;BME280;68331;53.362;55.932;2023-09-12T10:32:16;100017.66;;;20.25;56.45
78932;BME280;68331;53.362;55.932;2023-09-12T10:34:58;100032.03;;;20.24;56.43
78932;BME280;68331;53.362;55.932;2023-09-12T10:37:26;100034.56;;;20.13;56.59
78932;BME280;68331;53.362;55.932;2023-09-12T10:39:53;100036.38;;;20.00;57.58
78932;BME280;68331;53.362;55.932;2023-09-12T10:42:20;100043.44;;;19.88;58.12
78932;BME280;68331;53.362;55.932;2023-09-12T10:44:46;100044.91;;;19.79;58.23
78932;BME280;68331;53.362;55.932;2023-09-12T10:47:13;100035.97;;;19.66;58.91
78932;BME280;68331;53.362;55.932;2023-09-12T10:49:43;100037.09;;;19.62;58.64
78932;BME280;68331;53.362;55.932;2023-09-12T10:52:23;100024.38;;;19.65;58.32
78932;BME280;68331;53.362;55.932;2023-09-12T10:54:50;100034.47;;;19.74;57.56
78932;BME280;68331;53.362;55.932;2023-09-12T10:57:16;100035.88;;;19.80;57.24
78932;BME280;68331;53.362;55.932;2023-09-12T11:02:34;100037.81;;;19.51;57.74
78932;BME280;68331;53.362;55.932;2023-09-12T11:05:02;100034.16;;;19.66;57.47
78932;BME280;68331;53.362;55.932;2023-09-12T11:12:42;100036.06;;;20.04;55.85
78932;BME280;68331;53.362;55.932;2023-09-12T11:15:09;100046.75;;;19.91;56.47
78932;BME280;68331;53.362;55.932;2023-09-12T11:17:42;100044.38;;;19.87;56.53
78932;BME280;68331;53.362;55.932;2023-09-12T11:20:10;100043.44;;;19.88;57.39
78932;BME280;68331;53.362;55.932;2023-09-12T11:22:38;100040.97;;;19.85;56.83
78932;BME280;68331;53.362;55.932;2023-09-12T11:25:18;100038.31;;;19.70;56.46
78932;BME280;68331;53.362;55.932;2023-09-12T11:28:19;100041.03;;;19.56;56.62
78932;BME280;68331;53.362;55.932;2023-09-12T11:31:11;100043.56;;;19.45;56.89
78932;BME280;68331;53.362;55.932;2023-09-12T11:33:40;100044.16;;;19.36;57.08
78932;BME280;68331;53.362;55.932;2023-09-12T11:36:06;100033.09;;;19.27;57.47
78932;BME280;68331;53.362;55.932;2023-09-12T11:38:38;100041.97;;;19.28;57.89
78932;BME280;68331;53.362;55.932;2023-09-12T11:41:06;100039.59;;;19.23;58.37
78932;BME280;68331;53.362;55.932;2023-09-12T11:43:32;100047.81;;;19.20;58.84
78932;BME280;68331;53.362;55.932;2023-09-12T11:46:07;100035.13;;;19.10;59.59
78932;BME280;68331;53.362;55.932;2023-09-12T11:48:33;100042.13;;;19.12;60.08
78932;BME280;68331;53.362;55.932;2023-09-12T11:50:59;100049.75;;;19.18;59.29
78932;BME280;68331;53.362;55.932;2023-09-12T11:53:27;100051.16;;;19.24;58.93
78932;BME280;68331;53.362;55.932;2023-09-12T11:55:59;100064.31;;;19.27;58.80
78932;BME280;68331;53.362;55.932;2023-09-12T11:58:26;100046.31;;;19.16;58.54
78932;BME280;68331;53.362;55.932;2023-09-12T12:00:57;100058.72;;;19.17;59.01
78932;BME280;68331;53.362;55.932;2023-09-12T12:03:25;100066.38;;;18.95;59.49
78932;BME280;68331;53.362;55.932;2023-09-12T12:05:57;100048.59;;;18.65;60.12
78932;BME280;68331;53.362;55.932;2023-09-12T12:08:24;100070.94;;;18.64;60.15
78932;BME280;68331;53.362;55.932;2023-09-12T12:10:51;100067.50;;;18.48;60.31
78932;BME280;68331;53.362;55.932;2023-09-12T12:13:18;100072.91;;;18.32;60.86
78932;BME280;68331;53.362;55.932;2023-09-12T12:15:47;100084.22;;;18.21;61.47
78932;BME280;68331;53.362;55.932;2023-09-12T12:18:13;100084.09;;;18.08;62.38
78932;BME280;68331;53.362;55.932;2023-09-12T12:20:40;100079.41;;;17.98;63.19
78932;BME280;68331;53.362;55.932;2023-09-12T12:23:06;100086.22;;;17.87;63.49
78932;BME280;68331;53.362;55.932;2023-09-12T12:25:32;100089.31;;;17.80;63.71
78932;BME280;68331;53.362;55.932;2023-09-12T12:28:03;100097.06;;;17.69;64.12
78932;BME280;68331;53.362;55.932;2023-09-12T12:30:35;100098.38;;;17.61;64.71
78932;BME280;68331;53.362;55.932;2023-09-12T12:33:07;100108.72;;;17.52;65.12
78932;BME280;68331;53.362;55.932;2023-09-12T12:35:33;100108.59;;;17.37;65.84
78932;BME280;68331;53.362;55.932;2023-09-12T12:38:02;100112.03;;;17.24;67.04
78932;BME280;68331;53.362;55.932;2023-09-12T12:40:31;100116.94;;;17.15;67.92
78932;BME280;68331;53.362;55.932;2023-09-12T12:42:57;100114.69;;;17.08;68.72
78932;BME280;68331;53.362;55.932;2023-09-12T12:45:23;100115.09;;;17.00;69.40
78932;BME280;68331;53.362;55.932;2023-09-12T12:47:57;100115.41;;;16.94;69.95
78932;BME280;68331;53.362;55.932;2023-09-12T12:50:24;100112.38;;;16.84;70.48
78932;BME280;68331;53.362;55.932;2023-09-12T12:52:50;100114.44;;;16.79;70.12
78932;BME280;68331;53.362;55.932;2023-09-12T12:55:16;100120.63;;;16.80;70.49
78932;BME280;68331;53.362;55.932;2023-09-12T12:57:44;100119.84;;;16.78;70.89
78932;BME280;68331;53.362;55.932;2023-09-12T13:00:13;100122.72;;;16.73;71.68
78932;BME280;68331;53.362;55.932;2023-09-12T13:02:40;100132.75;;;16.68;72.38
78932;BME280;68331;53.362;55.932;2023-09-12T13:05:40;100126.91;;;16.61;72.38
78932;BME280;68331;53.362;55.932;2023-09-12T13:08:13;100128.06;;;16.56;72.15